Tianjin, China
Current Conditions -  °F | °C
As of 10:00 PM on Sunday 25 Jan 2015 (Local Time) from ZBTJ Reporting Station
Haze Haze  
Wind Chill: -1°   Ceiling: Unl
Heat Index:   Visibility: 1.8mi
Dew Point: -3°   Wind: 4mph
Humidity: 75%   Direction: 250°WSW
Pressure: 30.27"   Gusts: NA
Location:  39.13°N, 117.2°E
Report Text: ZBTJ 251400Z 25002MPS 3000 HZ NSC 01/M03 Q1025 NOSIG
Loading
Personal Weather Stations






























Interactive Weather Map New forecast layout! Learn more

10-Day Weather Forecast

Advertisements
Track Severe Weather on mobile